createdAt,value
2022-11-14T00:01:51.170Z,101418.19
2022-11-14T00:07:14.354Z,101416.59
2022-11-14T00:12:36.433Z,101415.19
2022-11-14T00:17:58.053Z,101406.28
2022-11-14T00:23:22.053Z,101403.41
2022-11-14T00:28:43.952Z,101408.22
2022-11-14T00:34:05.743Z,101411.78
2022-11-14T00:39:30.788Z,101411.88
2022-11-14T00:44:52.753Z,101400.38
2022-11-14T00:50:14.470Z,101395.72
2022-11-14T00:55:37.660Z,101394.72
2022-11-14T01:00:59.572Z,101387.72
2022-11-14T01:06:21.926Z,101385.63
2022-11-14T01:11:45.485Z,101368.78
2022-11-14T01:17:07.163Z,101368.38
2022-11-14T01:22:30.763Z,101364.19
2022-11-14T01:27:54.154Z,101359.41
2022-11-14T01:33:15.855Z,101342.59
2022-11-14T01:38:37.976Z,101346.72
2022-11-14T01:44:01.373Z,101341.47
2022-11-14T01:49:26.851Z,101332.88
2022-11-14T01:54:52.283Z,101330.47
2022-11-14T02:00:16.823Z,101331.72
2022-11-14T02:05:39.167Z,101319.13
2022-11-14T02:11:00.963Z,101310.22
2022-11-14T02:16:24.080Z,101311.22
2022-11-14T02:21:47.320Z,101313.03
2022-11-14T02:27:10.429Z,101296.50
2022-11-14T02:32:45.014Z,101293.88
2022-11-14T02:38:15.610Z,101292.84
2022-11-14T02:43:37.717Z,101286.69
2022-11-14T02:48:59.708Z,101274.88
2022-11-14T02:54:23.278Z,101271.78
2022-11-14T02:59:44.970Z,101263.75
2022-11-14T03:05:07.798Z,101273.69
2022-11-14T03:10:31.738Z,101269.03
2022-11-14T03:15:53.721Z,101267.59
2022-11-14T03:21:18.156Z,101255.62
2022-11-14T03:26:41.358Z,101240.50
2022-11-14T03:32:02.983Z,101237.94
2022-11-14T03:37:24.638Z,101246.66
2022-11-14T03:42:47.870Z,101238.19
2022-11-14T03:48:09.787Z,101225.03
2022-11-14T03:53:31.825Z,101238.66
2022-11-14T03:58:55.046Z,101238.66
2022-11-14T04:04:16.959Z,101242.03
2022-11-14T04:09:39.379Z,101239.34
2022-11-14T04:15:02.791Z,101232.31
2022-11-14T04:20:24.421Z,101216.37
2022-11-14T04:25:47.286Z,101215.38
2022-11-14T04:31:10.607Z,101214.59
2022-11-14T04:36:32.600Z,101204.47
2022-11-14T04:41:54.276Z,101197.13
2022-11-14T04:47:17.256Z,101189.34
2022-11-14T04:52:39.025Z,101197.13
2022-11-14T04:58:00.771Z,101181.75
2022-11-14T05:03:23.779Z,101178.97
2022-11-14T05:08:45.551Z,101171.06
2022-11-14T05:14:07.361Z,101167.50
2022-11-14T05:19:30.609Z,101169.94
2022-11-14T05:24:52.465Z,101165.28
2022-11-14T05:30:14.668Z,101163.59
2022-11-14T05:35:37.826Z,101160.13
2022-11-14T05:40:59.860Z,101163.50
2022-11-14T05:46:21.846Z,101157.91
2022-11-14T05:51:44.955Z,101150.16
2022-11-14T05:57:06.952Z,101150.78
2022-11-14T06:02:28.945Z,101159.94
2022-11-14T06:07:58.013Z,101162.34
2022-11-14T06:13:19.762Z,101164.59
2022-11-14T06:18:42.234Z,101167.72
2022-11-14T06:24:06.250Z,101158.91
2022-11-14T06:29:34.172Z,101155.09
2022-11-14T06:34:58.045Z,101159.13
2022-11-14T06:40:21.506Z,101175.38
2022-11-14T06:45:43.400Z,101164.25
2022-11-14T06:51:06.645Z,101163.38
2022-11-14T06:56:29.775Z,101158.13
2022-11-14T07:01:51.610Z,101155.56
2022-11-14T07:07:13.540Z,101168.47
2022-11-14T07:12:36.407Z,101164.78
2022-11-14T07:17:59.674Z,101159.78
2022-11-14T07:23:22.962Z,101163.03
2022-11-14T07:28:52.282Z,101161.44
2022-11-14T07:34:14.849Z,101161.69
2022-11-14T07:39:36.583Z,101155.47
2022-11-14T07:44:59.636Z,101160.25
2022-11-14T07:50:21.305Z,101158.03
2022-11-14T07:55:43.122Z,101154.12
2022-11-14T08:01:07.902Z,101152.69
2022-11-14T08:06:30.100Z,101145.44
2022-11-14T08:11:52.017Z,101147.12
2022-11-14T08:17:15.237Z,101144.91
2022-11-14T08:22:36.934Z,101132.19
2022-11-14T08:27:58.706Z,101124.87
2022-11-14T08:33:22.028Z,101118.66
2022-11-14T08:38:43.758Z,101111.13
2022-11-14T08:44:05.848Z,101105.97
2022-11-14T08:49:29.404Z,101096.22
2022-11-14T08:54:51.358Z,101099.81
2022-11-14T09:00:13.920Z,101087.94
2022-11-14T09:05:37.481Z,101084.63
2022-11-14T09:11:05.374Z,101090.31
2022-11-14T09:16:27.973Z,101091.44
2022-11-14T09:21:51.052Z,101075.13
2022-11-14T09:27:12.775Z,101073.41
2022-11-14T09:32:34.569Z,101068.38
2022-11-14T09:38:05.854Z,101070.72
2022-11-14T09:43:42.658Z,101065.66
2022-11-14T09:49:04.651Z,101069.53
2022-11-14T09:54:30.310Z,101085.72
2022-11-14T09:59:52.483Z,101079.09
2022-11-14T10:05:40.847Z,101068.84
2022-11-14T10:11:08.814Z,101061.16
2022-11-14T10:16:41.771Z,101053.75
2022-11-14T10:22:17.214Z,101048.97
2022-11-14T10:27:51.249Z,101049.72
2022-11-14T10:33:31.448Z,101040.16
2022-11-14T10:39:01.729Z,101033.78
2022-11-14T10:44:30.915Z,101028.56
2022-11-14T10:49:57.002Z,101028.34
2022-11-14T10:55:31.992Z,101023.84
2022-11-14T11:01:36.163Z,101015.56
2022-11-14T11:06:59.781Z,101021.56
2022-11-14T11:12:24.535Z,101007.97
2022-11-14T11:17:57.370Z,101001.53
2022-11-14T11:23:23.038Z,100999.91
2022-11-14T11:28:44.927Z,101004.53
2022-11-14T11:34:10.272Z,101001.16
2022-11-14T11:39:36.801Z,100985.50
2022-11-14T11:45:04.324Z,100974.47
2022-11-14T11:50:27.624Z,100969.06
2022-11-14T11:55:52.901Z,100969.78
2022-11-14T12:01:15.824Z,100956.03
2022-11-14T12:06:46.017Z,100953.62
2022-11-14T12:12:16.259Z,100965.34
2022-11-14T12:18:04.589Z,100965.91
2022-11-14T12:23:58.056Z,100959.94
2022-11-14T12:29:42.223Z,100954.78
2022-11-14T12:35:08.016Z,100952.69
2022-11-14T12:40:34.527Z,100957.59
2022-11-14T12:46:02.059Z,100956.81
2022-11-14T12:51:52.341Z,100945.87
2022-11-14T12:57:44.463Z,100954.34
2022-11-14T13:03:27.808Z,100953.88
2022-11-14T13:09:36.170Z,100942.47
2022-11-14T13:15:49.314Z,100933.22
2022-11-14T13:21:44.796Z,100921.09
2022-11-14T13:27:45.151Z,100898.41
2022-11-14T13:33:09.064Z,100895.53
2022-11-14T13:39:06.783Z,100873.41
2022-11-14T13:44:39.801Z,100853.91
2022-11-14T13:50:06.410Z,100851.75
2022-11-14T13:55:38.565Z,100858.94
2022-11-14T14:01:14.934Z,100837.13
2022-11-14T14:06:52.222Z,100834.25
2022-11-14T14:12:37.134Z,100829.34
2022-11-14T14:18:09.903Z,100842.00
2022-11-14T14:23:43.178Z,100845.47
2022-11-14T14:29:15.810Z,100842.69
2022-11-14T14:34:37.808Z,100832.63
2022-11-14T14:40:02.764Z,100844.59
2022-11-14T14:45:26.927Z,100835.12
2022-11-14T14:50:50.822Z,100836.56
2022-11-14T14:56:21.891Z,100845.91
2022-11-14T15:01:44.854Z,100843.13
2022-11-14T15:07:06.682Z,100845.84
2022-11-14T15:12:31.759Z,100837.50
2022-11-14T15:17:56.109Z,100832.19
2022-11-14T15:23:20.860Z,100839.78
2022-11-14T15:28:44.417Z,100852.66
2022-11-14T15:34:22.016Z,100834.56
2022-11-14T15:39:44.987Z,100823.94
2022-11-14T15:50:36.261Z,100829.91
2022-11-14T15:55:58.887Z,100829.91
2022-11-14T16:01:26.063Z,100839.09
2022-11-14T16:06:50.199Z,100836.97
2022-11-14T16:12:12.493Z,100834.63
2022-11-14T16:17:38.092Z,100831.28
2022-11-14T16:23:01.502Z,100834.59
2022-11-14T16:28:23.376Z,100837.41
2022-11-14T16:33:45.198Z,100827.94
2022-11-14T16:39:11.508Z,100820.41
2022-11-14T16:44:40.949Z,100818.41
2022-11-14T16:50:05.781Z,100812.00
2022-11-14T16:55:29.483Z,100804.38
2022-11-14T17:00:51.226Z,100810.50
2022-11-14T17:06:13.159Z,100806.97
2022-11-14T17:11:36.205Z,100817.44
2022-11-14T17:17:04.083Z,100822.88
2022-11-14T17:22:26.191Z,100827.06
2022-11-14T17:27:49.934Z,100822.34
2022-11-14T17:33:12.066Z,100821.16
2022-11-14T17:38:34.530Z,100809.78
2022-11-14T17:44:01.764Z,100819.31
2022-11-14T17:49:23.772Z,100818.09
2022-11-14T17:54:45.491Z,100809.72
2022-11-14T18:00:10.435Z,100814.69
2022-11-14T18:05:32.654Z,100811.97
2022-11-14T18:10:55.163Z,100808.59
2022-11-14T18:16:20.056Z,100797.28
2022-11-14T18:21:43.234Z,100803.56
2022-11-14T18:27:05.192Z,100788.59
2022-11-14T18:32:28.463Z,100798.56
2022-11-14T18:37:50.492Z,100795.50
2022-11-14T18:43:12.160Z,100794.47
2022-11-14T18:48:35.595Z,100799.72
2022-11-14T18:53:59.245Z,100792.34
2022-11-14T18:59:21.112Z,100805.06
2022-11-14T19:04:44.259Z,100806.87
2022-11-14T19:10:07.007Z,100804.97
2022-11-14T19:15:28.931Z,100810.00
2022-11-14T19:20:59.326Z,100811.09
2022-11-14T19:26:21.367Z,100798.91
2022-11-14T19:31:44.100Z,100798.38
2022-11-14T19:37:07.483Z,100797.50
2022-11-14T19:42:29.177Z,100786.75
2022-11-14T19:47:51.191Z,100799.25
2022-11-14T19:53:14.250Z,100785.69
2022-11-14T19:58:37.175Z,100787.56
2022-11-14T20:04:01.289Z,100775.97
2022-11-14T20:09:24.298Z,100777.34
2022-11-14T20:14:46.198Z,100770.50
2022-11-14T20:20:09.066Z,100772.63
2022-11-14T20:25:32.470Z,100781.22
2022-11-14T20:30:55.055Z,100770.91
2022-11-14T20:36:19.753Z,100771.78
2022-11-14T20:41:43.151Z,100762.78
2022-11-14T20:47:09.843Z,100760.44
2022-11-14T20:52:33.027Z,100758.09
2022-11-14T20:57:56.203Z,100748.87
2022-11-14T21:03:18.139Z,100744.84
2022-11-14T21:08:40.739Z,100739.53
2022-11-14T21:14:04.360Z,100736.00
2022-11-14T21:19:25.963Z,100735.66
2022-11-14T21:24:47.694Z,100740.34
2022-11-14T21:30:11.610Z,100733.19
2022-11-14T21:35:35.868Z,100740.09
2022-11-14T21:40:57.760Z,100740.50
2022-11-14T21:46:21.001Z,100735.03
2022-11-14T21:51:42.826Z,100738.25
2022-11-14T21:57:09.803Z,100743.81
2022-11-14T22:02:50.986Z,100753.62
2022-11-14T22:08:13.118Z,100747.66
2022-11-14T22:13:35.041Z,100734.94
2022-11-14T22:19:04.707Z,100744.59
2022-11-14T22:24:27.507Z,100742.75
2022-11-14T22:29:49.342Z,100742.41
2022-11-14T22:35:12.362Z,100732.94
2022-11-14T22:40:34.265Z,100734.88
2022-11-14T22:45:57.059Z,100728.75
2022-11-14T22:51:21.861Z,100727.16
2022-11-14T22:56:44.031Z,100714.75
2022-11-14T23:02:05.919Z,100726.66
2022-11-14T23:07:29.392Z,100720.53
2022-11-14T23:12:51.692Z,100722.22
2022-11-14T23:18:13.782Z,100726.97
2022-11-14T23:23:37.011Z,100719.47
2022-11-14T23:28:59.309Z,100721.59
2022-11-14T23:34:21.392Z,100723.09
2022-11-14T23:39:44.494Z,100714.59
2022-11-14T23:45:07.038Z,100715.63
2022-11-14T23:50:29.118Z,100715.78
2022-11-14T23:55:56.738Z,100706.38
